Time;durP1;ratioP1;P1;durP2;ratioP2;P2;SDS_P1;SDS_P2;PMS_P1;PMS_P2;Temp;Humidity;BMP_temperature;BMP_pressure;BME280_temperature;BME280_humidity;BME280_pressure;Samples;Min_cycle;Max_cycle;Signal;HPM_P1;HPM_P2
2021/12/25 00:03:16;;;;;;;0.50;0.40;;;17.40;59.90;;;;;;10435549;28;20197;-67
2021/12/25 00:08:38;;;;;;;0.87;0.50;;;17.50;59.90;;;;;;10408977;28;20245;-66
2021/12/25 00:14:00;;;;;;;0.30;0.30;;;17.50;59.80;;;;;;10413178;28;20205;-67
2021/12/25 00:19:24;;;;;;;0.77;0.40;;;17.50;59.70;;;;;;10446929;28;20213;-67
2021/12/25 00:24:46;;;;;;;0.53;0.40;;;17.50;59.70;;;;;;10367329;28;20194;-68
2021/12/25 00:30:22;;;;;;;0.63;0.40;;;17.40;59.50;;;;;;10371012;28;20217;-67
2021/12/25 00:35:47;;;;;;;0.80;0.30;;;17.50;59.50;;;;;;10440312;28;20193;-67
2021/12/25 00:41:10;;;;;;;1.10;0.53;;;17.50;59.50;;;;;;10447840;28;20213;-67
2021/12/25 00:46:32;;;;;;;1.17;0.50;;;17.40;59.70;;;;;;10445628;28;20228;-67
2021/12/25 00:51:56;;;;;;;0.70;0.40;;;17.50;59.80;;;;;;10437909;28;20862;-67
2021/12/25 00:57:18;;;;;;;0.83;0.43;;;17.50;59.60;;;;;;10440421;28;20582;-66
2021/12/25 01:02:42;;;;;;;0.77;0.50;;;17.40;59.50;;;;;;10440238;28;20600;-67
2021/12/25 01:08:07;;;;;;;0.53;0.33;;;17.40;59.50;;;;;;10421906;28;20221;-67
2021/12/25 01:13:32;;;;;;;0.87;0.43;;;17.40;59.50;;;;;;10411182;28;20572;-67
2021/12/25 01:19:25;;;;;;;0.63;0.40;;;17.40;59.50;;;;;;10454987;28;20290;-67
2021/12/25 01:25:17;;;;;;;0.60;0.40;;;17.50;59.50;;;;;;10454715;28;20193;-67
2021/12/25 01:30:50;;;;;;;0.20;0.20;;;17.40;59.40;;;;;;10446057;28;20301;-67
2021/12/25 01:47:43;;;;;;;0.73;0.50;;;17.40;59.30;;;;;;10415814;28;20209;-67
2021/12/25 01:47:51;;;;;;;0.20;0.20;;;17.40;59.20;;;;;;10454080;28;20584;-67
2021/12/25 01:53:14;;;;;;;0.60;0.27;;;17.40;59.10;;;;;;10453694;28;20203;-67
2021/12/25 01:58:37;;;;;;;0.40;0.37;;;17.40;59.10;;;;;;10452849;28;20212;-67
2021/12/25 02:03:59;;;;;;;0.43;0.30;;;17.40;59.10;;;;;;10453467;28;20196;-66
2021/12/25 02:09:22;;;;;;;0.20;0.20;;;17.40;59.00;;;;;;10441311;28;20224;-67
2021/12/25 02:14:47;;;;;;;0.63;0.40;;;17.40;59.00;;;;;;10452103;28;20200;-67
2021/12/25 02:20:13;;;;;;;0.10;0.10;;;17.40;59.00;;;;;;10451065;28;20205;-67
2021/12/25 02:25:36;;;;;;;0.40;0.20;;;17.40;59.00;;;;;;10452748;28;20201;-67
2021/12/25 02:31:01;;;;;;;0.20;0.20;;;17.40;59.00;;;;;;10443528;28;20227;-67
2021/12/25 02:36:25;;;;;;;0.27;0.23;;;17.40;59.00;;;;;;10451151;28;20189;-67
2021/12/25 02:41:47;;;;;;;0.33;0.33;;;17.40;58.90;;;;;;10450347;28;20221;-67
2021/12/25 02:47:16;;;;;;;0.17;0.17;;;17.40;58.90;;;;;;10451852;28;20219;-67
2021/12/25 02:52:40;;;;;;;0.20;0.20;;;17.40;58.80;;;;;;10440165;28;20357;-67
2021/12/25 02:58:02;;;;;;;0.40;0.30;;;17.40;59.30;;;;;;10419115;28;20193;-67
2021/12/25 03:03:24;;;;;;;1.03;0.47;;;17.40;58.80;;;;;;10443948;28;20197;-67
2021/12/25 03:08:48;;;;;;;0.30;0.30;;;17.40;58.70;;;;;;10449971;28;20704;-67
2021/12/25 03:14:30;;;;;;;0.50;0.30;;;17.40;58.70;;;;;;10438282;28;20197;-67
2021/12/25 03:19:54;;;;;;;0.30;0.20;;;17.40;58.80;;;;;;10409982;28;20223;-67
2021/12/25 03:25:18;;;;;;;0.40;0.33;;;17.40;58.70;;;;;;10410561;28;20194;-67
2021/12/25 03:30:41;;;;;;;0.50;0.20;;;17.40;58.60;;;;;;10409530;28;20220;-67
2021/12/25 03:36:03;;;;;;;0.50;0.30;;;17.40;58.50;;;;;;10442559;28;20204;-67
2021/12/25 03:41:27;;;;;;;0.63;0.20;;;17.40;58.50;;;;;;10449854;28;20209;-67
2021/12/25 03:46:49;;;;;;;0.70;0.40;;;17.40;58.50;;;;;;10449374;28;20197;-67
2021/12/25 03:57:57;;;;;;;0.73;0.30;;;17.40;58.40;;;;;;10449262;28;20245;-67
2021/12/25 04:03:26;;;;;;;1.00;0.30;;;17.40;58.40;;;;;;10449031;28;20193;-67
2021/12/25 04:08:51;;;;;;;0.77;0.30;;;17.40;59.00;;;;;;10444456;28;20667;-67
2021/12/25 04:14:14;;;;;;;0.33;0.30;;;17.40;58.30;;;;;;10444042;28;20684;-67
2021/12/25 04:19:37;;;;;;;0.20;0.20;;;17.40;58.20;;;;;;10448419;28;20217;-67
2021/12/25 04:24:59;;;;;;;0.30;0.20;;;17.40;58.20;;;;;;10405456;28;20335;-67
2021/12/25 04:30:36;;;;;;;0.53;0.23;;;17.40;58.30;;;;;;10440254;28;20221;-66
2021/12/25 05:04:21;;;;;;;0.77;0.33;;;17.40;58.10;;;;;;10415233;28;20197;-67
2021/12/25 05:09:43;;;;;;;0.47;0.20;;;17.40;58.20;;;;;;10446028;28;20217;-67
2021/12/25 05:15:06;;;;;;;1.00;0.47;;;17.30;58.00;;;;;;10405690;28;20201;-67
2021/12/25 05:20:30;;;;;;;0.93;0.30;;;17.40;58.30;;;;;;10432197;28;20213;-67
2021/12/25 05:25:52;;;;;;;0.50;0.30;;;17.30;58.30;;;;;;10446182;28;20197;-67
2021/12/25 05:31:16;;;;;;;0.20;0.20;;;17.30;58.40;;;;;;10437940;28;20217;-67
2021/12/25 05:36:39;;;;;;;0.40;0.30;;;17.30;58.30;;;;;;10445878;28;20228;-67
2021/12/25 05:42:01;;;;;;;0.30;0.30;;;17.30;58.20;;;;;;10447738;28;20213;-67
2021/12/25 05:47:23;;;;;;;0.50;0.27;;;17.40;58.10;;;;;;10454549;28;20228;-67
2021/12/25 05:52:47;;;;;;;0.93;0.30;;;17.40;58.10;;;;;;10453408;28;20244;-67
2021/12/25 05:58:09;;;;;;;0.73;0.40;;;17.40;58.00;;;;;;10453720;28;20190;-67
2021/12/25 06:03:31;;;;;;;0.23;0.23;;;17.40;58.00;;;;;;10441425;28;20201;-67
2021/12/25 06:08:55;;;;;;;0.63;0.30;;;17.40;58.00;;;;;;10453052;28;20221;-67
2021/12/25 06:14:20;;;;;;;0.30;0.23;;;17.40;57.90;;;;;;10452442;28;20698;-66
2021/12/25 06:19:42;;;;;;;0.30;0.20;;;17.40;57.90;;;;;;10443125;28;20743;-67
2021/12/25 06:25:06;;;;;;;0.47;0.30;;;17.40;58.00;;;;;;10451660;28;20202;-67
2021/12/25 06:30:28;;;;;;;0.30;0.20;;;17.40;58.00;;;;;;10452240;28;20225;-67
2021/12/25 06:35:50;;;;;;;0.33;0.23;;;17.40;58.60;;;;;;10452286;28;20193;-67
2021/12/25 06:41:14;;;;;;;0.43;0.20;;;17.40;58.10;;;;;;10451726;28;20212;-67
2021/12/25 06:46:37;;;;;;;0.20;0.20;;;17.40;58.20;;;;;;10443182;28;20204;-67
2021/12/25 06:51:59;;;;;;;0.20;0.20;;;17.40;58.10;;;;;;10451192;28;20655;-67
2021/12/25 06:57:22;;;;;;;0.87;0.23;;;17.40;58.20;;;;;;10450017;28;20277;-67
2021/12/25 07:02:45;;;;;;;0.23;0.20;;;17.40;58.10;;;;;;10418029;28;20220;-66
2021/12/25 07:08:07;;;;;;;0.30;0.20;;;17.40;58.20;;;;;;10409542;28;20222;-67
2021/12/25 07:13:30;;;;;;;0.20;0.20;;;17.40;58.20;;;;;;10432366;28;20204;-67
2021/12/25 07:18:52;;;;;;;0.80;0.23;;;17.40;58.10;;;;;;10446924;28;20612;-67
2021/12/25 07:24:14;;;;;;;1.37;0.43;;;17.40;58.20;;;;;;10419099;28;20199;-66
2021/12/25 07:29:39;;;;;;;0.40;0.27;;;17.40;58.20;;;;;;10449481;28;20225;-67
2021/12/25 07:35:01;;;;;;;0.40;0.30;;;17.40;58.20;;;;;;10448915;28;20668;-68
2021/12/25 07:40:23;;;;;;;0.70;0.30;;;17.40;58.20;;;;;;10442755;28;20639;-67
2021/12/25 07:45:48;;;;;;;0.87;0.30;;;17.40;58.10;;;;;;10448878;28;20549;-67
2021/12/25 07:51:10;;;;;;;0.30;0.30;;;17.40;58.20;;;;;;10448413;28;20647;-67
2021/12/25 07:56:32;;;;;;;0.37;0.30;;;17.40;58.20;;;;;;10448340;28;20216;-67
2021/12/25 08:01:56;;;;;;;0.60;0.40;;;17.40;58.10;;;;;;10367134;28;20268;-67
2021/12/25 08:07:18;;;;;;;0.47;0.30;;;17.40;58.00;;;;;;10404627;28;20232;-67
2021/12/25 08:12:42;;;;;;;0.90;0.50;;;17.40;58.00;;;;;;10404923;28;20624;-67
2021/12/25 08:18:06;;;;;;;0.40;0.30;;;17.40;58.00;;;;;;10405568;28;20205;-67
2021/12/25 08:23:29;;;;;;;0.43;0.43;;;17.40;58.00;;;;;;10405622;28;20186;-67
2021/12/25 08:28:51;;;;;;;0.33;0.33;;;17.30;57.80;;;;;;10421331;28;20217;-67
2021/12/25 08:34:15;;;;;;;0.67;0.60;;;17.30;57.80;;;;;;10414612;28;20580;-67
2021/12/25 08:39:37;;;;;;;0.77;0.67;;;17.30;57.90;;;;;;10444177;28;20213;-66
2021/12/25 08:45:10;;;;;;;0.73;0.50;;;17.30;58.00;;;;;;10447584;28;20193;-67
2021/12/25 08:50:33;;;;;;;1.57;0.83;;;17.40;58.10;;;;;;10432295;28;20225;-66
2021/12/25 08:55:57;;;;;;;1.13;0.70;;;17.30;58.00;;;;;;10441207;28;20193;-67
2021/12/25 09:01:19;;;;;;;1.17;0.93;;;17.40;58.00;;;;;;10446332;28;20339;-67
2021/12/25 09:06:43;;;;;;;0.80;0.80;;;17.30;58.00;;;;;;10414400;28;20574;-67
2021/12/25 09:12:08;;;;;;;0.70;0.70;;;17.40;58.60;;;;;;10412138;28;20217;-67
2021/12/25 09:17:30;;;;;;;0.80;0.80;;;17.40;57.90;;;;;;10448822;28;20204;-66
2021/12/25 09:22:54;;;;;;;1.30;1.00;;;17.40;57.80;;;;;;10454752;28;20217;-67
2021/12/25 09:28:16;;;;;;;1.10;1.00;;;17.40;57.90;;;;;;10454099;28;20631;-67
2021/12/25 09:33:39;;;;;;;2.10;1.27;;;17.30;57.80;;;;;;10454252;28;20216;-67
2021/12/25 09:39:04;;;;;;;1.33;0.90;;;17.30;57.90;;;;;;10438958;28;20217;-67
2021/12/25 09:44:27;;;;;;;1.70;1.00;;;17.30;57.90;;;;;;10448080;28;20567;-67
2021/12/25 09:49:49;;;;;;;1.30;0.93;;;17.30;57.70;;;;;;10453698;28;20221;-67
2021/12/25 09:55:14;;;;;;;3.03;1.03;;;17.30;57.70;;;;;;10417029;28;20201;-67
2021/12/25 10:00:47;;;;;;;2.00;1.17;;;17.30;57.60;;;;;;10413166;28;20709;-67
2021/12/25 10:06:09;;;;;;;2.23;1.27;;;17.30;57.80;;;;;;10447190;28;20209;-67
2021/12/25 10:11:32;;;;;;;12.13;2.65;;;17.30;57.90;;;;;;10418603;28;20476;-68
2021/12/25 10:16:55;;;;;;;7.10;2.93;;;18.00;56.20;;;;;;10411985;28;20194;-67
2021/12/25 10:22:17;;;;;;;7.80;2.60;;;17.70;57.10;;;;;;10410250;28;20721;-67
2021/12/25 10:27:50;;;;;;;10.80;3.40;;;17.60;57.60;;;;;;10416144;28;20596;-67
2021/12/25 10:33:27;;;;;;;17.03;4.17;;;17.60;57.60;;;;;;10408977;28;20665;-68
2021/12/25 10:38:59;;;;;;;13.13;3.63;;;17.60;58.00;;;;;;10435779;28;20218;-67
2021/12/25 10:44:24;;;;;;;6.93;2.60;;;17.60;59.60;;;;;;10407044;28;20569;-68
2021/12/25 10:49:48;;;;;;;7.93;2.17;;;17.40;51.60;;;;;;10413595;28;20839;-68
2021/12/25 10:55:17;;;;;;;5.83;1.80;;;17.20;46.50;;;;;;10408493;28;20665;-66
2021/12/25 11:00:40;;;;;;;3.40;1.40;;;16.90;41.90;;;;;;10417500;28;20206;-68
2021/12/25 11:06:06;;;;;;;4.00;1.80;;;16.80;41.00;;;;;;10422673;28;20218;-67
2021/12/25 11:11:28;;;;;;;22.00;5.33;;;16.80;39.70;;;;;;10408249;28;20222;-67
2021/12/25 11:16:53;;;;;;;2.00;0.90;;;16.90;39.30;;;;;;10432513;28;20194;-67
2021/12/25 11:22:15;;;;;;;8.97;0.97;;;16.30;34.70;;;;;;10437858;28;20216;-67
2021/12/25 11:27:37;;;;;;;3.40;1.10;;;16.00;36.00;;;;;;10449773;28;20196;-68
2021/12/25 11:33:01;;;;;;;7.07;0.90;;;16.10;38.40;;;;;;10450184;28;20222;-68
2021/12/25 11:38:23;;;;;;;5.83;0.80;;;16.30;38.80;;;;;;10448725;28;20204;-68
2021/12/25 11:43:47;;;;;;;3.87;1.00;;;16.40;37.80;;;;;;10436137;28;20555;-68
2021/12/25 11:49:12;;;;;;;2.43;0.70;;;16.40;37.60;;;;;;10410661;28;20222;-68
2021/12/25 11:54:59;;;;;;;2.33;0.60;;;16.60;38.20;;;;;;10420866;28;20199;-68
2021/12/25 12:00:40;;;;;;;0.83;0.57;;;16.60;38.50;;;;;;10426148;28;20593;-68
2021/12/25 12:06:04;;;;;;;1.97;0.67;;;16.70;38.10;;;;;;10433658;28;20204;-68
2021/12/25 12:11:28;;;;;;;2.27;0.60;;;16.70;38.60;;;;;;10430632;28;20754;-67
2021/12/25 12:16:52;;;;;;;0.70;0.47;;;16.70;38.10;;;;;;10402103;28;20205;-66
2021/12/25 12:23:05;;;;;;;1.97;0.70;;;16.70;39.00;;;;;;10431262;28;20223;-67
2021/12/25 12:28:45;;;;;;;1.03;0.57;;;16.70;43.30;;;;;;10364672;28;20241;-67
2021/12/25 12:34:35;;;;;;;0.90;0.43;;;16.80;44.80;;;;;;10424512;28;20201;-67
2021/12/25 12:40:30;;;;;;;0.90;0.50;;;16.90;45.80;;;;;;10403471;28;20215;-67
2021/12/25 12:45:53;;;;;;;1.13;0.50;;;16.90;46.70;;;;;;10443208;22;20252;-61
2021/12/25 12:51:19;;;;;;;1.27;0.57;;;17.00;47.20;;;;;;10411003;28;20276;-65
2021/12/25 12:57:04;;;;;;;1.07;0.50;;;17.00;47.80;;;;;;10436412;28;20204;-61
2021/12/25 13:02:29;;;;;;;2.10;0.70;;;17.00;48.30;;;;;;10436042;28;20265;-62
2021/12/25 13:07:53;;;;;;;1.30;0.60;;;17.10;48.80;;;;;;10411865;28;20226;-59
2021/12/25 13:13:19;;;;;;;1.58;0.85;;;17.10;49.20;;;;;;10414130;28;20437;-63
2021/12/25 13:18:44;;;;;;;1.73;0.60;;;17.50;48.40;;;;;;10421089;28;20660;-62
2021/12/25 13:24:09;;;;;;;1.23;0.73;;;17.20;49.20;;;;;;10426738;28;20204;-60
2021/12/25 13:29:33;;;;;;;2.23;0.63;;;17.20;49.80;;;;;;10408563;28;20229;-62
2021/12/25 13:34:55;;;;;;;2.53;0.77;;;17.20;50.20;;;;;;10415726;28;20575;-64
2021/12/25 13:40:17;;;;;;;2.20;1.13;;;17.20;50.60;;;;;;10414618;28;20217;-63
2021/12/25 13:45:41;;;;;;;2.40;0.93;;;17.20;50.90;;;;;;10413860;28;20544;-63
2021/12/25 13:51:03;;;;;;;2.53;1.08;;;17.20;51.10;;;;;;10412894;28;20917;-65
2021/12/25 13:56:25;;;;;;;4.13;1.40;;;17.90;49.00;;;;;;10437737;28;20201;-64
2021/12/25 14:01:58;;;;;;;6.00;2.57;;;17.50;50.60;;;;;;10435444;28;20421;-64
2021/12/25 14:07:22;;;;;;;4.83;2.27;;;17.80;49.70;;;;;;10413390;28;20449;-65
2021/12/25 14:12:47;;;;;;;5.00;2.63;;;17.50;51.10;;;;;;10411947;28;20214;-64
2021/12/25 14:18:10;;;;;;;5.03;3.00;;;17.30;51.60;;;;;;10416554;28;20220;-64
2021/12/25 14:23:32;;;;;;;5.30;3.03;;;17.30;51.90;;;;;;10433038;28;20186;-65
2021/12/25 14:28:55;;;;;;;8.87;3.07;;;17.30;52.10;;;;;;10412144;28;20221;-66
2021/12/25 14:34:19;;;;;;;5.50;3.07;;;17.20;52.20;;;;;;10453736;28;20189;-65
2021/12/25 14:39:41;;;;;;;4.40;3.00;;;17.20;52.30;;;;;;10420928;28;20210;-66
2021/12/25 14:45:04;;;;;;;4.70;3.03;;;17.20;52.50;;;;;;10433444;28;20209;-65
2021/12/25 14:50:32;;;;;;;7.70;3.50;;;17.20;52.50;;;;;;10411615;28;20222;-65
2021/12/25 14:55:57;;;;;;;5.63;3.50;;;17.20;52.70;;;;;;10411849;28;20201;-65
2021/12/25 15:01:22;;;;;;;3.90;2.70;;;17.20;52.70;;;;;;10409851;28;20228;-66
2021/12/25 15:06:48;;;;;;;5.07;2.90;;;17.20;52.80;;;;;;10410457;28;20194;-65
2021/12/25 15:12:16;;;;;;;5.70;3.20;;;17.20;52.90;;;;;;10410545;28;20216;-65
2021/12/25 15:17:42;;;;;;;4.07;2.87;;;17.20;52.90;;;;;;10448324;28;20303;-65
2021/12/25 15:23:17;;;;;;;4.47;2.83;;;17.30;53.10;;;;;;10426316;28;20189;-65
2021/12/25 15:28:41;;;;;;;4.47;2.77;;;17.30;53.00;;;;;;10449245;28;20205;-65
2021/12/25 15:34:08;;;;;;;3.03;2.47;;;17.30;53.20;;;;;;10429764;28;20205;-66
2021/12/25 15:39:32;;;;;;;3.80;3.10;;;17.20;53.20;;;;;;10450537;28;20212;-65
2021/12/25 15:44:55;;;;;;;3.80;2.63;;;17.20;53.30;;;;;;10420666;28;20208;-65
2021/12/25 15:50:24;;;;;;;5.43;3.53;;;17.20;53.40;;;;;;10405826;28;20587;-65
2021/12/25 15:55:47;;;;;;;4.70;2.73;;;17.20;53.40;;;;;;10409257;28;20194;-65
2021/12/25 16:01:09;;;;;;;4.20;2.70;;;17.30;53.40;;;;;;10395696;28;20240;-65
2021/12/25 16:06:32;;;;;;;4.83;2.47;;;17.30;53.60;;;;;;10407750;28;20190;-63
2021/12/25 16:11:57;;;;;;;5.75;3.25;;;17.30;53.60;;;;;;10402861;28;20429;-64
2021/12/25 16:17:19;;;;;;;5.23;2.97;;;17.70;52.20;;;;;;10408352;28;20217;-64
2021/12/25 16:22:41;;;;;;;4.37;2.63;;;17.40;53.10;;;;;;10407851;28;20186;-64
2021/12/25 16:28:07;;;;;;;4.27;2.60;;;17.30;53.40;;;;;;10404716;28;20233;-63
2021/12/25 16:33:29;;;;;;;4.23;3.20;;;17.30;53.60;;;;;;10405245;28;20225;-62
2021/12/25 16:38:52;;;;;;;4.40;3.17;;;17.30;53.80;;;;;;10402379;28;20817;-64
2021/12/25 16:44:18;;;;;;;4.17;3.20;;;17.30;53.80;;;;;;10403006;28;20606;-64
2021/12/25 16:49:40;;;;;;;7.53;3.27;;;17.30;53.90;;;;;;10396561;28;20233;-63
2021/12/25 16:55:03;;;;;;;5.15;3.80;;;17.20;54.00;;;;;;10397134;28;20421;-64
2021/12/25 17:00:30;;;;;;;4.20;3.07;;;18.10;51.70;;;;;;10401287;28;20264;-64
2021/12/25 17:05:53;;;;;;;4.47;3.20;;;17.60;53.20;;;;;;10397482;28;20201;-63
2021/12/25 17:11:15;;;;;;;5.90;3.50;;;17.40;53.90;;;;;;10401250;28;20217;-64
2021/12/25 17:16:39;;;;;;;4.97;3.23;;;17.40;54.20;;;;;;10401093;28;20217;-64
2021/12/25 17:22:01;;;;;;;4.97;3.60;;;17.30;54.40;;;;;;10402631;28;20663;-64
2021/12/25 17:27:23;;;;;;;5.07;3.60;;;17.30;54.60;;;;;;10400902;28;20225;-65
2021/12/25 17:32:47;;;;;;;7.17;3.50;;;17.30;54.80;;;;;;10405557;28;20220;-64
2021/12/25 17:38:09;;;;;;;4.13;3.17;;;17.30;54.90;;;;;;10403554;28;20255;-64
2021/12/25 17:43:32;;;;;;;5.17;3.83;;;17.30;54.90;;;;;;10409535;28;20197;-65
2021/12/25 17:48:57;;;;;;;7.77;4.03;;;17.30;55.00;;;;;;10403732;28;20564;-65
2021/12/25 17:54:19;;;;;;;4.40;3.40;;;17.30;55.10;;;;;;10409973;28;20224;-65
2021/12/25 17:59:42;;;;;;;4.30;3.13;;;17.30;55.00;;;;;;10417967;28;20229;-65
2021/12/25 18:05:08;;;;;;;5.43;3.47;;;17.30;55.00;;;;;;10409594;28;20208;-64
2021/12/25 18:10:31;;;;;;;6.57;4.00;;;17.30;55.00;;;;;;10407245;28;20599;-66
2021/12/25 18:15:53;;;;;;;4.67;3.30;;;17.30;55.10;;;;;;10407889;28;20210;-66
2021/12/25 18:21:17;;;;;;;4.57;3.53;;;17.30;55.10;;;;;;10412677;28;20697;-65
2021/12/25 18:26:39;;;;;;;3.63;3.20;;;17.30;55.20;;;;;;10440265;28;20193;-65
2021/12/25 18:32:02;;;;;;;4.13;3.33;;;17.30;55.20;;;;;;10431290;28;20699;-66
2021/12/25 18:37:25;;;;;;;4.23;3.00;;;17.30;55.30;;;;;;10452518;28;20340;-65
2021/12/25 18:42:47;;;;;;;4.50;3.20;;;17.30;55.40;;;;;;10440993;28;20198;-65
2021/12/25 18:48:10;;;;;;;4.53;3.30;;;17.30;55.60;;;;;;10395013;22;1087502;-63
2021/12/25 18:53:33;;;;;;;4.37;3.37;;;17.20;55.70;;;;;;10434767;28;20220;-63
2021/12/25 18:58:56;;;;;;;5.27;3.70;;;17.30;55.70;;;;;;10385643;28;20230;-68
2021/12/25 19:04:18;;;;;;;5.10;3.75;;;17.20;55.70;;;;;;10387848;28;20769;-66
2021/12/25 19:09:41;;;;;;;4.70;3.17;;;18.20;52.80;;;;;;10375494;28;20700;-66
2021/12/25 19:15:04;;;;;;;5.33;3.60;;;17.60;54.60;;;;;;10369162;28;20216;-67
2021/12/25 19:20:28;;;;;;;5.27;3.87;;;17.40;55.20;;;;;;10367332;28;20221;-67
2021/12/25 19:25:51;;;;;;;4.47;3.33;;;17.40;55.40;;;;;;10371662;28;20241;-67
2021/12/25 19:31:15;;;;;;;5.60;3.47;;;17.30;55.40;;;;;;10365961;28;20210;-67
2021/12/25 19:36:37;;;;;;;4.60;3.47;;;17.30;55.50;;;;;;10365305;28;20221;-67
2021/12/25 19:42:01;;;;;;;5.47;3.63;;;17.30;55.50;;;;;;10368149;28;20934;-67
2021/12/25 19:47:23;;;;;;;3.87;3.07;;;17.30;55.50;;;;;;10375293;28;20709;-67
2021/12/25 19:52:47;;;;;;;4.30;3.23;;;17.30;55.60;;;;;;10367211;28;20214;-66
2021/12/25 19:58:11;;;;;;;4.57;3.57;;;17.20;55.60;;;;;;10365078;28;20637;-67
2021/12/25 20:03:35;;;;;;;4.50;3.70;;;17.30;55.60;;;;;;10367020;28;20186;-66
2021/12/25 20:09:07;;;;;;;3.93;3.53;;;17.20;55.50;;;;;;10360513;28;20244;-66
2021/12/25 20:14:31;;;;;;;5.83;3.37;;;17.20;55.60;;;;;;10360586;28;20218;-66
2021/12/25 20:19:53;;;;;;;4.87;3.50;;;17.20;55.60;;;;;;10360133;28;20229;-66
2021/12/25 20:25:16;;;;;;;4.60;3.77;;;17.20;55.50;;;;;;10360674;28;20206;-66
2021/12/25 20:30:40;;;;;;;4.80;3.53;;;17.20;55.50;;;;;;10361310;28;20229;-66
2021/12/25 20:36:04;;;;;;;5.27;3.77;;;17.20;55.50;;;;;;10358412;28;20210;-66
2021/12/25 20:41:27;;;;;;;4.47;3.57;;;17.20;55.50;;;;;;10362382;28;20197;-66
2021/12/25 20:46:51;;;;;;;5.33;3.77;;;17.20;55.50;;;;;;10365296;28;20230;-66
2021/12/25 20:52:14;;;;;;;4.17;3.47;;;17.20;55.50;;;;;;10365834;28;20222;-66
2021/12/25 20:57:37;;;;;;;4.37;3.60;;;17.10;55.40;;;;;;10364475;28;20214;-66
2021/12/25 21:03:01;;;;;;;4.60;3.23;;;17.10;55.50;;;;;;10363030;28;20195;-66
2021/12/25 21:08:24;;;;;;;4.50;3.37;;;17.10;55.40;;;;;;10364740;28;20220;-66
2021/12/25 21:13:46;;;;;;;3.80;2.97;;;17.10;55.40;;;;;;10367572;28;20226;-66
2021/12/25 21:19:10;;;;;;;5.07;3.50;;;17.10;55.50;;;;;;10370624;28;20234;-66
2021/12/25 21:24:33;;;;;;;5.33;3.17;;;17.10;55.40;;;;;;10375899;28;20195;-66
2021/12/25 21:29:55;;;;;;;3.50;3.10;;;17.10;55.40;;;;;;10410521;28;20214;-66
2021/12/25 21:35:21;;;;;;;4.70;3.50;;;17.10;55.40;;;;;;10417429;28;20197;-66
2021/12/25 21:40:43;;;;;;;3.47;2.93;;;17.10;55.40;;;;;;10416859;28;20200;-66
2021/12/25 21:46:06;;;;;;;3.70;2.70;;;17.10;55.30;;;;;;10417068;28;20293;-66
2021/12/25 21:51:29;;;;;;;3.50;2.80;;;17.10;55.40;;;;;;10419147;28;20617;-66
2021/12/25 21:56:51;;;;;;;3.77;3.00;;;17.10;55.40;;;;;;10385704;28;20218;-66
2021/12/25 22:02:13;;;;;;;3.03;2.73;;;17.10;55.30;;;;;;10374465;28;20574;-66
2021/12/25 22:07:40;;;;;;;3.33;2.80;;;17.10;55.30;;;;;;10374952;28;20210;-66
2021/12/25 22:13:03;;;;;;;2.77;2.53;;;17.10;55.50;;;;;;10374190;28;20233;-66
2021/12/25 22:18:25;;;;;;;3.60;2.90;;;17.10;55.30;;;;;;10373750;28;20221;-66
2021/12/25 22:23:50;;;;;;;3.03;2.73;;;17.10;55.30;;;;;;10373531;28;20191;-66
2021/12/25 22:29:12;;;;;;;3.90;2.73;;;17.10;55.20;;;;;;10372614;28;20222;-66
2021/12/25 22:34:35;;;;;;;3.90;2.50;;;17.10;55.20;;;;;;10373592;28;20213;-67
2021/12/25 22:39:58;;;;;;;3.43;3.13;;;17.10;55.20;;;;;;10373064;28;20218;-66
2021/12/25 22:45:22;;;;;;;4.23;2.80;;;17.10;55.20;;;;;;10369765;28;20198;-66
2021/12/25 22:50:45;;;;;;;3.13;2.63;;;17.10;55.20;;;;;;10372670;28;20654;-66
2021/12/25 22:56:08;;;;;;;2.47;2.27;;;17.10;55.20;;;;;;10372162;28;20233;-66
2021/12/25 23:01:30;;;;;;;4.30;2.70;;;17.10;55.20;;;;;;10365165;28;20198;-65
2021/12/25 23:06:52;;;;;;;3.30;2.97;;;17.10;55.20;;;;;;10371856;28;20755;-66
2021/12/25 23:12:17;;;;;;;3.77;2.90;;;17.10;55.10;;;;;;10371722;28;20214;-66
2021/12/25 23:17:39;;;;;;;4.67;3.43;;;17.10;55.10;;;;;;10373147;28;20250;-66
2021/12/25 23:23:01;;;;;;;4.43;3.50;;;17.10;55.10;;;;;;10372063;28;20617;-66
2021/12/25 23:28:25;;;;;;;2.83;2.60;;;17.10;55.10;;;;;;10371598;28;20222;-67
2021/12/25 23:33:48;;;;;;;3.97;3.00;;;17.00;55.10;;;;;;10372663;28;20225;-66
2021/12/25 23:39:10;;;;;;;3.37;2.90;;;17.10;55.10;;;;;;10352087;28;20227;-66
2021/12/25 23:44:34;;;;;;;4.13;3.30;;;17.10;55.10;;;;;;10358797;28;20206;-66
2021/12/25 23:49:57;;;;;;;3.47;2.67;;;17.10;55.10;;;;;;10371507;28;20319;-66
2021/12/25 23:55:21;;;;;;;3.13;2.70;;;17.10;55.10;;;;;;10370778;28;20217;-66
